If you wish to contribute or participate in the discussions about articles you are invited to join SKYbrary as a registered user

 Actions

Bacău Airport

From SKYbrary Wiki

LRBC
Airport
ICAO: LRBC – IATA: BCM
Summary
Name Bacău Airport
Region
Territory Romania RO.gif
Location , Bacau
Serving Bacau
Elevation 185.014 m
607 ft
607 ft185.014 m
Type medium airport
Coordinates 46° 31' 19.01" N, 26° 54' 37.00" E
Runways
Designator Length Width Surface ROPS
16/34 2500 m8,202.1 ft
80 m262.467 ft
CON yes/yes


METAR
Observation LRBC 201800Z 27002KT CAVOK 09/02 Q1027
Station Bacau
Date/Time 20 April 2019 18:00:00
Wind direction 270°
Wind speed 02 kts
Lowest cloud amount clouds and visibility OK
Temperature 9°C
Dew point 2°C
Humidity 61%
QNH 1027 hPa
Weather condition n/a